Time;durP1;ratioP1;P1;durP2;ratioP2;P2;SDS_P1;SDS_P2;PMS_P1;PMS_P2;Temp;Humidity;BMP_temperature;BMP_pressure;BME280_temperature;BME280_humidity;BME280_pressure;Samples;Min_cycle;Max_cycle;Signal;HPM_P1;HPM_P2
2023/12/14 00:02:12;;;;;;;24.27;10.15;;;;;;;9.02;84.53;99673.53;5083145;28;20051;-85
2023/12/14 00:05:12;;;;;;;14.32;9.18;;;;;;;9.17;83.39;99677.56;5087294;28;20048;-85
2023/12/14 00:08:07;;;;;;;14.77;9.00;;;;;;;9.21;81.75;99675.75;5080598;28;20040;-84
2023/12/14 00:11:05;;;;;;;16.87;9.30;;;;;;;9.26;81.60;99686.41;5080569;28;20055;-85
2023/12/14 00:13:57;;;;;;;22.90;11.55;;;;;;;9.39;81.03;99701.66;5079778;28;20051;-85
2023/12/14 00:16:49;;;;;;;18.42;10.48;;;;;;;9.45;80.75;99689.44;5083182;28;20099;-85
2023/12/14 00:19:43;;;;;;;15.93;9.88;;;;;;;9.51;80.39;99697.38;5080760;28;20048;-85
2023/12/14 00:22:35;;;;;;;14.03;9.20;;;;;;;9.52;80.34;99697.06;5083826;28;20409;-84
2023/12/14 00:25:28;;;;;;;14.07;9.40;;;;;;;9.50;79.60;99695.81;5082495;28;20405;-85
2023/12/14 00:28:22;;;;;;;15.52;10.45;;;;;;;9.53;80.02;99711.41;5084080;28;20047;-85
2023/12/14 00:31:17;;;;;;;14.70;9.67;;;;;;;9.50;79.28;99707.44;5083617;28;20043;-85
2023/12/14 00:34:11;;;;;;;14.15;8.55;;;;;;;9.40;79.81;99708.63;5079477;28;20047;-85
2023/12/14 00:37:03;;;;;;;11.43;7.23;;;;;;;9.19;80.51;99728.78;5079620;28;20524;-85
2023/12/14 00:39:55;;;;;;;14.38;9.40;;;;;;;9.19;81.12;99731.47;5084900;28;20043;-85
2023/12/14 00:42:47;;;;;;;11.57;7.28;;;;;;;9.21;81.14;99735.44;5080065;28;20044;-85
2023/12/14 00:45:39;;;;;;;10.13;7.95;;;;;;;9.18;80.85;99727.16;5085436;28;20070;-85
2023/12/14 00:48:31;;;;;;;11.70;8.07;;;;;;;9.28;80.67;99732.22;5084308;28;20052;-85
2023/12/14 00:51:23;;;;;;;8.48;6.30;;;;;;;9.30;80.28;99729.94;5078896;28;20067;-85
2023/12/14 00:54:15;;;;;;;11.30;8.93;;;;;;;9.34;80.56;99737.13;5078759;28;20567;-85
2023/12/14 00:57:14;;;;;;;14.35;8.68;;;;;;;9.34;79.72;99725.47;5081252;28;20048;-84
2023/12/14 01:00:10;;;;;;;12.48;9.35;;;;;;;9.44;79.49;99723.16;5078685;28;20051;-84
2023/12/14 01:03:02;;;;;;;;;;;;;;;9.50;79.06;99722.94;5080569;28;20050;-85
2023/12/14 01:05:57;;;;;;;12.70;8.80;;;;;;;9.39;79.74;99715.22;5084956;28;19928;-85
2023/12/14 01:08:49;;;;;;;13.10;7.70;;;;;;;9.43;79.33;99726.97;5084254;28;20051;-85
2023/12/14 01:11:39;;;;;;;15.32;9.07;;;;;;;9.39;79.34;99738.84;5080529;28;20067;-85
2023/12/14 01:14:33;;;;;;;13.75;9.95;;;;;;;9.34;79.55;99744.47;5078269;28;20051;-85
2023/12/14 01:17:25;;;;;;;13.85;9.18;;;;;;;9.25;80.62;99754.56;5081874;28;20516;-84
2023/12/14 01:20:17;;;;;;;19.00;10.65;;;;;;;9.22;79.91;99753.31;5079086;28;20047;-85
2023/12/14 01:23:12;;;;;;;13.60;8.60;;;;;;;9.15;79.81;99752.22;5081465;28;20056;-85
2023/12/14 01:26:04;;;;;;;22.67;10.33;;;;;;;9.11;80.14;99754.81;5080680;28;20420;-85
2023/12/14 01:28:56;;;;;;;14.98;10.20;;;;;;;9.12;81.26;99761.03;5083758;28;20051;-85
2023/12/14 01:31:50;;;;;;;17.42;10.52;;;;;;;9.09;81.56;99757.06;5081829;28;20063;-85
2023/12/14 01:34:45;;;;;;;11.90;7.65;;;;;;;9.11;82.10;99764.84;5080185;28;20047;-84
2023/12/14 01:37:42;;;;;;;15.00;9.90;;;;;;;9.13;82.41;99771.56;5082225;28;20401;-85
2023/12/14 01:40:34;;;;;;;22.15;11.13;;;;;;;9.16;82.21;99776.31;5084104;28;20394;-85
2023/12/14 01:43:26;;;;;;;12.55;8.32;;;;;;;9.21;82.11;99784.25;5081050;28;20052;-85
2023/12/14 01:46:18;;;;;;;17.52;10.05;;;;;;;9.21;82.58;99783.47;5082336;28;20059;-85
2023/12/14 01:49:13;;;;;;;16.30;10.25;;;;;;;9.23;82.14;99783.94;5084059;28;20540;-84
2023/12/14 01:52:07;;;;;;;17.50;9.83;;;;;;;9.08;81.39;99782.59;5078990;28;20048;-84
2023/12/14 01:55:02;;;;;;;16.80;9.63;;;;;;;9.18;82.80;99792.25;5083340;28;20047;-84
2023/12/14 01:57:57;;;;;;;14.32;9.95;;;;;;;9.13;82.05;99787.03;5081003;28;20047;-85
2023/12/14 02:01:11;;;;;;;16.27;9.70;;;;;;;9.12;82.12;99786.22;5083160;28;20107;-85
2023/12/14 02:04:06;;;;;;;17.75;8.63;;;;;;;9.05;81.31;99779.72;5079957;28;20059;-84
2023/12/14 02:06:58;;;;;;;10.97;6.90;;;;;;;8.97;81.92;99779.47;5083727;28;20043;-83
2023/12/14 02:09:50;;;;;;;18.48;8.38;;;;;;;8.96;81.58;99775.16;5080246;28;20282;-84
2023/12/14 02:12:45;;;;;;;16.58;8.02;;;;;;;8.93;81.84;99775.03;5077883;28;20051;-84
2023/12/14 02:15:39;;;;;;;16.53;8.77;;;;;;;8.99;81.91;99779.09;5081318;28;20409;-84
2023/12/14 02:18:34;;;;;;;11.00;6.20;;;;;;;9.06;81.05;99778.59;5079107;28;20265;-84
2023/12/14 02:21:28;;;;;;;16.40;8.93;;;;;;;9.15;80.94;99777.44;5083099;28;20516;-84
2023/12/14 02:24:23;;;;;;;16.83;8.60;;;;;;;9.18;80.82;99782.22;5062370;28;20039;-84
2023/12/14 02:27:15;;;;;;;16.97;8.87;;;;;;;8.91;81.40;99779.97;5078076;28;20040;-84
2023/12/14 02:30:10;;;;;;;16.08;8.90;;;;;;;8.80;83.52;99782.25;5081990;28;20043;-84
2023/12/14 02:33:05;;;;;;;17.45;9.70;;;;;;;8.95;82.80;99781.69;5079579;28;20059;-83
2023/12/14 02:36:03;;;;;;;15.27;7.60;;;;;;;8.95;82.96;99778.19;5079465;28;20051;-84
2023/12/14 02:38:55;;;;;;;12.70;7.97;;;;;;;8.84;83.35;99779.66;5085096;28;20126;-85
2023/12/14 02:41:49;;;;;;;17.23;9.10;;;;;;;8.72;84.43;99780.38;5079956;28;20039;-85
2023/12/14 02:44:44;;;;;;;24.10;9.63;;;;;;;8.73;84.75;99781.97;5083459;28;20048;-84
2023/12/14 02:47:39;;;;;;;21.38;9.55;;;;;;;8.79;84.71;99785.28;5080671;28;20051;-84
2023/12/14 02:50:33;;;;;;;12.83;6.70;;;;;;;8.77;85.45;99785.63;5082780;28;20115;-85
2023/12/14 02:53:28;;;;;;;25.37;8.93;;;;;;;8.54;86.43;99792.38;5079816;28;20270;-84
2023/12/14 02:56:25;;;;;;;20.02;9.07;;;;;;;8.26;87.82;99797.38;5077847;28;20048;-84
2023/12/14 02:59:20;;;;;;;19.83;9.30;;;;;;;8.11;88.52;99792.47;5081263;28;20048;-85
2023/12/14 03:02:14;;;;;;;18.27;10.18;;;;;;;8.22;88.52;99788.31;5079278;28;20040;-85
2023/12/14 03:05:09;;;;;;;15.90;7.33;;;;;;;8.10;87.34;99793.59;5077145;28;20051;-85
2023/12/14 03:08:01;;;;;;;22.67;9.43;;;;;;;8.17;87.15;99788.50;5092747;28;20072;-84
2023/12/14 03:10:53;;;;;;;15.43;9.02;;;;;;;8.21;87.40;99791.34;5093422;28;20055;-84
2023/12/14 03:13:47;;;;;;;12.70;8.65;;;;;;;8.25;87.24;99801.22;5094539;28;20027;-84
2023/12/14 03:16:42;;;;;;;22.17;9.87;;;;;;;8.15;87.77;99806.97;5095623;28;20027;-84
2023/12/14 03:19:37;;;;;;;19.60;8.98;;;;;;;8.01;87.79;99814.47;5088144;28;20050;-85
2023/12/14 03:22:29;;;;;;;16.75;6.72;;;;;;;8.05;88.38;99799.16;5086045;28;20110;-84
2023/12/14 03:25:23;;;;;;;26.30;8.75;;;;;;;8.03;88.05;99804.09;5081891;28;20540;-85
2023/12/14 03:28:18;;;;;;;30.03;8.07;;;;;;;7.94;88.11;99804.13;5089583;28;20051;-84
2023/12/14 03:31:15;;;;;;;41.20;10.13;;;;;;;8.01;88.93;99814.47;5085324;28;20051;-85
2023/12/14 03:34:09;;;;;;;18.67;8.43;;;;;;;8.21;88.67;99821.13;5082244;28;20052;-84
2023/12/14 03:37:01;;;;;;;35.20;7.93;;;;;;;8.03;86.81;99823.84;5084589;28;20047;-84
2023/12/14 03:39:56;;;;;;;15.18;7.32;;;;;;;8.18;86.78;99819.84;5082036;28;20409;-84
2023/12/14 03:42:50;;;;;;;21.13;8.50;;;;;;;8.14;86.22;99824.31;5085280;28;20044;-84
2023/12/14 03:45:43;;;;;;;18.70;6.27;;;;;;;8.09;86.02;99835.31;5083015;28;20047;-85
2023/12/14 03:48:37;;;;;;;19.48;9.10;;;;;;;8.13;86.34;99834.34;5086786;28;20047;-84
2023/12/14 03:51:29;;;;;;;15.07;7.73;;;;;;;8.22;85.42;99844.41;5086995;28;20047;-84
2023/12/14 03:54:24;;;;;;;14.13;8.07;;;;;;;8.31;85.23;99843.28;5081019;28;20055;-84
2023/12/14 03:57:16;;;;;;;16.13;6.93;;;;;;;8.40;84.34;99852.19;5085459;28;20401;-84
2023/12/14 04:00:11;;;;;;;24.25;8.48;;;;;;;8.41;84.38;99851.09;5086374;28;20052;-84
2023/12/14 04:03:07;;;;;;;15.27;9.48;;;;;;;8.48;84.61;99847.91;5084039;28;20052;-84
2023/12/14 04:06:01;;;;;;;16.98;6.50;;;;;;;8.51;84.28;99853.44;5084718;28;20051;-85
2023/12/14 04:08:56;;;;;;;14.03;8.03;;;;;;;8.56;84.51;99847.84;5082057;28;20047;-85
2023/12/14 04:11:51;;;;;;;15.47;6.77;;;;;;;8.56;83.56;99847.84;5079734;28;20047;-85
2023/12/14 04:14:45;;;;;;;24.30;7.63;;;;;;;8.26;84.57;99856.97;5081988;28;20330;-85
2023/12/14 04:17:40;;;;;;;13.32;7.80;;;;;;;8.12;85.64;99854.44;5085065;28;20047;-85
2023/12/14 04:20:34;;;;;;;8.20;5.85;;;;;;;8.18;85.44;99857.75;5084978;28;20122;-85
2023/12/14 04:23:26;;;;;;;14.50;6.27;;;;;;;8.06;85.83;99871.16;5081012;28;20047;-85
2023/12/14 04:26:19;;;;;;;11.75;7.18;;;;;;;8.04;86.19;99873.38;5083939;28;20532;-85
2023/12/14 04:29:13;;;;;;;10.63;7.03;;;;;;;8.08;85.50;99874.31;5085058;28;20059;-84
2023/12/14 04:32:03;;;;;;;17.15;7.95;;;;;;;8.07;85.83;99872.75;5084558;28;20058;-85
2023/12/14 04:34:55;;;;;;;21.95;7.28;;;;;;;7.97;86.58;99873.06;5084219;28;20047;-84
2023/12/14 04:37:47;;;;;;;14.40;6.97;;;;;;;7.90;87.20;99865.44;5080509;28;20051;-84
2023/12/14 04:40:40;;;;;;;14.57;7.22;;;;;;;7.84;87.71;99869.41;5079093;28;20047;-84
2023/12/14 04:43:32;;;;;;;15.32;7.13;;;;;;;7.94;87.57;99882.63;5081180;28;20056;-84
2023/12/14 04:46:24;;;;;;;11.02;6.93;;;;;;;7.88;87.23;99885.78;5080519;28;20402;-84
2023/12/14 04:49:18;;;;;;;19.77;6.35;;;;;;;7.94;86.52;99889.94;5084945;28;20051;-85
2023/12/14 04:52:13;;;;;;;6.53;4.90;;;;;;;7.94;84.60;99896.16;5082083;28;20044;-84
2023/12/14 04:55:03;;;;;;;10.15;4.68;;;;;;;7.85;83.04;99878.31;5079238;28;20063;-85
2023/12/14 04:57:57;;;;;;;7.20;4.20;;;;;;;7.76;81.96;99891.03;5083790;28;20072;-84
2023/12/14 05:00:49;;;;;;;5.40;4.70;;;;;;;7.79;82.35;99901.22;5083688;28;20039;-85
2023/12/14 05:03:41;;;;;;;5.47;4.25;;;;;;;7.87;80.88;99911.28;5078698;28;20048;-85
2023/12/14 05:06:35;;;;;;;6.00;5.07;;;;;;;7.96;79.99;99906.66;5082497;28;20048;-85
2023/12/14 05:09:30;;;;;;;8.13;4.80;;;;;;;8.02;78.43;99913.53;5079677;28;20044;-85
2023/12/14 05:12:25;;;;;;;4.60;3.70;;;;;;;8.00;78.10;99911.13;5083480;28;20297;-84
2023/12/14 05:15:19;;;;;;;4.07;3.13;;;;;;;8.01;77.66;99914.63;5082055;28;20324;-84
2023/12/14 05:18:18;;;;;;;5.35;4.10;;;;;;;7.79;78.14;99920.97;5081365;28;20043;-84
2023/12/14 05:21:18;;;;;;;4.80;4.00;;;;;;;7.80;76.65;99929.88;5083518;28;20040;-84
2023/12/14 05:24:12;;;;;;;4.22;3.63;;;;;;;7.63;77.38;99931.44;5079472;28;20044;-84
2023/12/14 05:27:04;;;;;;;3.85;3.45;;;;;;;7.68;76.72;99936.69;5083149;28;20396;-85
2023/12/14 05:29:59;;;;;;;3.53;3.13;;;;;;;7.60;76.59;99937.50;5080158;28;20047;-84
2023/12/14 05:32:54;;;;;;;6.35;4.75;;;;;;;7.38;77.49;99937.56;5078586;28;20048;-84
2023/12/14 05:35:48;;;;;;;5.23;4.37;;;;;;;7.25;78.82;99947.41;5081034;28;20111;-86
2023/12/14 05:38:42;;;;;;;5.38;4.30;;;;;;;7.27;77.21;99938.94;5078573;28;20067;-84
2023/12/14 05:41:42;;;;;;;9.18;4.35;;;;;;;7.11;77.81;99948.59;5083451;28;20044;-84
2023/12/14 05:44:34;;;;;;;16.90;4.03;;;;;;;7.13;79.35;99951.78;5077857;28;20047;-85
2023/12/14 05:47:30;;;;;;;5.13;3.70;;;;;;;6.94;79.02;99954.72;5074415;28;20524;-85
2023/12/14 05:50:22;;;;;;;10.75;4.13;;;;;;;6.99;77.84;99956.47;5080341;28;20044;-84
2023/12/14 05:53:16;;;;;;;4.75;3.65;;;;;;;7.03;77.69;99958.25;5078077;28;20063;-84
2023/12/14 05:56:14;;;;;;;5.03;3.17;;;;;;;6.85;76.78;99957.38;5082474;28;20405;-85
2023/12/14 05:59:08;;;;;;;5.18;4.10;;;;;;;6.75;78.72;99963.03;5079040;28;20043;-84
2023/12/14 06:02:03;;;;;;;10.17;3.37;;;;;;;6.83;80.63;99966.88;5077633;28;20044;-85
2023/12/14 06:04:57;;;;;;;8.75;3.42;;;;;;;6.72;77.73;99979.84;5081956;28;20313;-84
2023/12/14 06:07:52;;;;;;;3.20;2.63;;;;;;;6.82;77.85;99989.59;5079149;28;20047;-84
2023/12/14 06:10:44;;;;;;;4.40;3.53;;;;;;;6.74;76.89;100001.16;5076660;28;20067;-83
2023/12/14 06:13:44;;;;;;;7.05;5.00;;;;;;;6.82;76.37;100005.81;5079396;28;20048;-83
2023/12/14 06:16:39;;;;;;;6.30;4.22;;;;;;;6.70;76.29;100019.88;5077294;28;20055;-83
2023/12/14 06:19:33;;;;;;;3.03;2.67;;;;;;;6.90;76.35;100029.41;5081050;28;20039;-84
2023/12/14 06:22:28;;;;;;;4.57;3.33;;;;;;;7.05;75.30;100028.22;5077931;28;20056;-82
2023/12/14 06:25:23;;;;;;;12.23;4.20;;;;;;;7.05;74.30;100025.53;5081427;28;20418;-82
2023/12/14 06:28:22;;;;;;;4.38;3.72;;;;;;;7.01;75.26;100043.47;5079059;28;20047;-82
2023/12/14 06:31:21;;;;;;;3.85;3.28;;;;;;;6.92;74.90;100040.69;5077175;28;20409;-82
2023/12/14 06:34:10;;;;;;;6.45;3.72;;;;;;;6.73;75.24;100048.97;5076828;28;20051;-83
2023/12/14 06:37:03;;;;;;;15.95;4.55;;;;;;;6.43;76.87;100052.38;5077463;28;20055;-83
2023/12/14 06:39:55;;;;;;;8.48;4.97;;;;;;;6.23;79.27;100059.00;5081964;28;20047;-83
2023/12/14 06:42:49;;;;;;;16.83;4.43;;;;;;;6.10;80.56;100053.59;5080224;28;20044;-83
2023/12/14 06:45:38;;;;;;;6.68;4.10;;;;;;;6.11;80.41;100055.22;5078249;28;20052;-83
2023/12/14 06:48:29;;;;;;;7.30;4.63;;;;;;;6.23;80.01;100047.41;5081708;28;20047;-84
2023/12/14 06:51:24;;;;;;;10.68;4.05;;;;;;;6.36;79.34;100052.78;5079060;28;20075;-83
2023/12/14 06:54:14;;;;;;;9.02;5.10;;;;;;;6.17;77.69;100051.31;5076853;28;20047;-83
2023/12/14 06:57:09;;;;;;;22.05;4.80;;;;;;;6.15;79.93;100064.31;5079764;28;20409;-82
2023/12/14 07:00:02;;;;;;;4.73;3.03;;;;;;;6.27;79.03;100073.50;5076699;28;20055;-83
2023/12/14 07:02:56;;;;;;;10.95;4.85;;;;;;;6.27;79.00;100075.41;5084164;28;20059;-83
2023/12/14 07:05:50;;;;;;;13.32;4.78;;;;;;;6.08;78.59;100072.03;5082580;28;20044;-83
2023/12/14 07:08:45;;;;;;;4.45;2.97;;;;;;;6.04;79.87;100071.84;5079753;28;20047;-83
2023/12/14 07:11:37;;;;;;;7.73;4.23;;;;;;;6.11;78.17;100074.09;5083602;28;20516;-83
2023/12/14 07:14:32;;;;;;;11.52;4.80;;;;;;;6.26;78.36;100080.00;5077977;28;20042;-83
2023/12/14 07:17:26;;;;;;;7.00;6.03;;;;;;;6.25;77.33;100088.38;5078517;28;20055;-83
2023/12/14 07:20:21;;;;;;;10.07;4.07;;;;;;;6.31;78.17;100103.38;5075758;28;20657;-82
2023/12/14 07:23:13;;;;;;;9.00;4.85;;;;;;;6.51;76.52;100111.06;5080644;28;20051;-82
2023/12/14 07:26:08;;;;;;;12.90;3.47;;;;;;;6.40;76.00;100115.88;5082652;28;20064;-83
2023/12/14 07:29:01;;;;;;;;;;;;;;;6.53;74.56;100114.25;5071573;28;20063;-82
2023/12/14 07:31:53;;;;;;;11.60;4.65;;;;;;;6.48;74.76;100119.78;5084012;28;19916;-82
2023/12/14 07:34:47;;;;;;;8.55;4.50;;;;;;;6.43;75.68;100127.97;5066810;28;20052;-82
2023/12/14 07:37:42;;;;;;;4.37;3.40;;;;;;;6.45;75.07;100131.16;5079383;28;20165;-82
2023/12/14 07:40:37;;;;;;;5.83;4.07;;;;;;;6.34;76.36;100129.81;5096320;28;20536;-83
2023/12/14 07:43:29;;;;;;;6.50;3.72;;;;;;;6.28;77.55;100136.41;5083009;28;20515;-82
2023/12/14 07:46:23;;;;;;;4.15;3.33;;;;;;;6.23;77.95;100140.00;5085635;28;20043;-81
2023/12/14 07:49:21;;;;;;;7.68;4.90;;;;;;;6.41;77.76;100141.78;5076351;28;20048;-82
2023/12/14 07:52:13;;;;;;;9.93;5.68;;;;;;;6.63;78.51;100154.56;5085186;28;20035;-83
2023/12/14 07:55:05;;;;;;;10.07;5.45;;;;;;;6.78;77.61;100151.53;5088706;28;20051;-82
2023/12/14 07:57:57;;;;;;;90.47;31.35;;;;;;;6.74;77.27;100166.75;5085100;28;20043;-81
2023/12/14 08:00:49;;;;;;;21.65;10.60;;;;;;;6.80;77.36;100186.38;5084174;28;20052;-83
2023/12/14 08:03:44;;;;;;;13.63;5.07;;;;;;;6.76;77.17;100188.06;5086637;28;20051;-82
2023/12/14 08:06:38;;;;;;;14.70;5.45;;;;;;;6.63;78.96;100192.38;5080501;28;20039;-83
2023/12/14 08:09:31;;;;;;;10.45;5.75;;;;;;;6.68;79.55;100194.97;5089308;28;20043;-83
2023/12/14 08:12:26;;;;;;;15.27;7.28;;;;;;;6.71;79.27;100205.19;5085743;28;20043;-82
2023/12/14 08:15:20;;;;;;;11.70;5.20;;;;;;;6.72;79.90;100195.97;5075867;28;20052;-82
2023/12/14 08:18:10;;;;;;;13.00;5.97;;;;;;;6.75;79.84;100187.28;5086380;28;20043;-83
2023/12/14 08:21:04;;;;;;;15.20;7.70;;;;;;;7.00;78.74;100201.34;5078130;28;20052;-82
2023/12/14 08:23:59;;;;;;;13.00;6.55;;;;;;;6.99;79.72;100205.16;5078881;28;20047;-83
2023/12/14 08:26:53;;;;;;;8.82;5.43;;;;;;;6.96;79.17;100211.16;5081970;28;20417;-83
2023/12/14 08:29:48;;;;;;;13.97;4.57;;;;;;;6.99;79.49;100215.97;5079470;28;20532;-82
2023/12/14 08:32:43;;;;;;;17.50;4.45;;;;;;;6.96;79.95;100225.47;5085435;28;20047;-83
2023/12/14 08:35:38;;;;;;;26.03;6.33;;;;;;;7.09;80.93;100237.34;5083377;28;20413;-83
2023/12/14 08:38:33;;;;;;;10.85;4.22;;;;;;;7.10;80.60;100238.97;5077059;28;20277;-80
2023/12/14 08:41:25;;;;;;;9.07;6.03;;;;;;;7.22;80.04;100247.34;5077548;28;20417;-81
2023/12/14 08:44:19;;;;;;;13.95;7.28;;;;;;;7.27;79.22;100250.72;5058458;28;20043;-81
2023/12/14 08:47:14;;;;;;;7.68;4.25;;;;;;;7.30;79.81;100260.16;5074594;28;20047;-81
2023/12/14 08:50:12;;;;;;;12.20;6.45;;;;;;;7.28;79.67;100262.34;5076759;28;20605;-82
2023/12/14 08:53:04;;;;;;;15.80;5.80;;;;;;;7.28;79.96;100262.34;5078682;28;20047;-81
2023/12/14 08:56:03;;;;;;;10.10;6.30;;;;;;;7.32;80.57;100264.13;5076064;28;20114;-82
2023/12/14 08:58:58;;;;;;;10.93;4.97;;;;;;;7.29;81.29;100272.88;5074697;28;20044;-81
2023/12/14 09:01:53;;;;;;;8.90;4.83;;;;;;;7.32;81.55;100279.56;5079830;28;20390;-82
2023/12/14 09:04:45;;;;;;;14.43;5.05;;;;;;;7.31;81.57;100283.41;5078109;28;20281;-82
2023/12/14 09:07:40;;;;;;;19.25;7.00;;;;;;;7.18;82.75;100284.19;5083478;28;20532;-84
2023/12/14 09:10:34;;;;;;;25.53;8.17;;;;;;;7.07;84.51;100289.03;5078454;28;20051;-83
2023/12/14 09:13:26;;;;;;;26.13;8.02;;;;;;;7.09;85.01;100292.22;5077417;28;20821;-82
2023/12/14 09:16:14;;;;;;;11.52;6.45;;;;;;;7.18;85.28;100295.03;5082239;28;20067;-82
2023/12/14 09:19:04;;;;;;;21.50;9.75;;;;;;;7.18;84.82;100295.03;5078712;28;20058;-82
2023/12/14 09:21:58;;;;;;;16.15;8.95;;;;;;;7.19;85.28;100288.50;5076732;28;20039;-83
2023/12/14 09:24:54;;;;;;;17.10;9.18;;;;;;;7.35;85.37;100300.59;5074036;28;20521;-83
2023/12/14 09:27:46;;;;;;;12.03;5.90;;;;;;;7.46;84.88;100301.19;5073681;28;20527;-82
2023/12/14 09:30:38;;;;;;;16.33;8.48;;;;;;;7.63;84.38;100322.97;5081992;28;20052;-82
2023/12/14 09:33:30;;;;;;;15.37;8.67;;;;;;;7.61;83.14;100326.00;5079439;28;20531;-82
2023/12/14 09:36:23;;;;;;;15.85;8.98;;;;;;;7.75;84.15;100331.38;5077854;28;20040;-82
2023/12/14 09:39:23;;;;;;;13.50;7.80;;;;;;;7.66;84.59;100330.50;5079822;28;20405;-82
2023/12/14 09:42:21;;;;;;;14.20;8.45;;;;;;;7.58;85.71;100323.09;5077344;28;20044;-83
2023/12/14 09:45:15;;;;;;;22.48;8.45;;;;;;;7.73;85.70;100320.84;5081033;28;20524;-83
2023/12/14 09:48:08;;;;;;;16.08;8.70;;;;;;;7.78;85.16;100327.22;5077766;28;20040;-81
2023/12/14 09:51:05;;;;;;;10.00;6.25;;;;;;;7.90;83.81;100324.78;5076325;28;20043;-81
2023/12/14 09:53:58;;;;;;;15.47;7.27;;;;;;;7.95;83.08;100335.50;5076737;28;20059;-82
2023/12/14 09:56:52;;;;;;;15.38;8.05;;;;;;;7.94;83.52;100334.69;5076654;28;20063;-82
2023/12/14 09:59:55;;;;;;;14.23;8.10;;;;;;;7.98;83.66;100346.50;5079474;28;20043;-82
2023/12/14 10:02:49;;;;;;;16.95;10.68;;;;;;;8.07;84.08;100344.69;5078667;28;20032;-83
2023/12/14 10:05:44;;;;;;;19.67;11.27;;;;;;;8.01;83.87;100345.13;5076329;28;20449;-81
2023/12/14 10:08:38;;;;;;;12.37;7.27;;;;;;;8.06;84.25;100348.50;5086048;28;20051;-82
2023/12/14 10:11:31;;;;;;;15.53;8.87;;;;;;;8.08;83.76;100345.47;5079853;28;20051;-81
2023/12/14 10:14:25;;;;;;;15.55;9.15;;;;;;;8.14;84.00;100344.25;5078333;28;20044;-82
2023/12/14 10:17:31;;;;;;;14.75;7.93;;;;;;;8.21;83.26;100344.63;5077110;28;20043;-82
2023/12/14 10:20:26;;;;;;;14.77;8.18;;;;;;;8.25;83.08;100344.78;5075469;28;20040;-81
2023/12/14 10:23:23;;;;;;;20.77;9.63;;;;;;;8.21;83.11;100347.34;5059289;28;20051;-82
2023/12/14 10:26:19;;;;;;;11.83;7.37;;;;;;;8.30;84.08;100353.63;5069079;28;20409;-81
2023/12/14 10:29:13;;;;;;;10.25;6.32;;;;;;;8.34;83.39;100351.91;5080071;28;20047;-82
2023/12/14 10:32:10;;;;;;;16.33;8.13;;;;;;;8.39;83.62;100356.38;5086966;28;20051;-81
2023/12/14 10:35:02;;;;;;;23.80;11.63;;;;;;;8.40;84.46;100352.56;5074225;28;20044;-81
2023/12/14 10:37:54;;;;;;;16.42;9.15;;;;;;;8.44;84.26;100354.34;5079928;28;20048;-81
2023/12/14 10:40:47;;;;;;;11.52;6.70;;;;;;;8.47;83.74;100350.25;5080820;28;20071;-81
2023/12/14 10:43:46;;;;;;;19.52;9.70;;;;;;;8.42;84.84;100353.06;5062652;28;20572;-83
2023/12/14 10:46:39;;;;;;;17.30;8.27;;;;;;;8.48;84.56;100358.03;5068403;28;20059;-81
2023/12/14 10:49:30;;;;;;;15.85;7.28;;;;;;;8.50;84.18;100366.66;5079709;28;20048;-81
2023/12/14 10:52:25;;;;;;;13.70;7.88;;;;;;;8.45;84.91;100361.38;5082627;28;20059;-83
2023/12/14 10:55:25;;;;;;;14.48;8.35;;;;;;;8.51;84.34;100371.00;5081389;28;20043;-83
2023/12/14 10:58:17;;;;;;;15.18;8.43;;;;;;;8.42;84.60;100374.75;5084382;28;20412;-83
2023/12/14 11:01:15;;;;;;;12.77;8.18;;;;;;;8.40;84.74;100375.06;5082564;28;20045;-82
2023/12/14 11:04:13;;;;;;;13.75;7.97;;;;;;;8.29;86.27;100384.50;5080644;28;20420;-81
2023/12/14 11:07:09;;;;;;;15.75;8.63;;;;;;;8.27;86.71;100389.44;5083389;28;20051;-80
2023/12/14 11:10:01;;;;;;;29.17;8.63;;;;;;;7.98;86.79;100395.25;5077282;28;20426;-81
2023/12/14 11:13:05;;;;;;;12.77;8.10;;;;;;;8.04;87.46;100390.53;5078540;28;20043;-81
2023/12/14 11:15:57;;;;;;;14.45;7.97;;;;;;;8.14;87.94;100393.78;5076244;28;20056;-81
2023/12/14 11:19:10;;;;;;;11.77;6.73;;;;;;;8.13;88.03;100392.19;5081283;28;20051;-82
2023/12/14 11:22:28;;;;;;;22.27;9.52;;;;;;;8.03;87.57;100391.63;5083469;28;20036;-81
2023/12/14 11:25:26;;;;;;;19.67;9.73;;;;;;;7.90;88.39;100395.97;5086138;28;20047;-81
2023/12/14 11:28:15;;;;;;;27.23;7.75;;;;;;;7.91;87.78;100397.59;5084415;28;20047;-81
2023/12/14 11:31:10;;;;;;;30.15;10.60;;;;;;;7.75;89.14;100407.16;5080683;28;20047;-82
2023/12/14 11:34:05;;;;;;;14.48;9.10;;;;;;;7.76;88.45;100399.84;5079891;28;20060;-81
2023/12/14 11:36:59;;;;;;;20.97;7.67;;;;;;;7.83;88.46;100413.72;5079812;28;20627;-82
2023/12/14 11:39:54;;;;;;;16.90;7.70;;;;;;;7.84;88.59;100412.63;5077475;28;20286;-81
2023/12/14 11:42:56;;;;;;;16.77;8.27;;;;;;;7.85;89.23;100409.63;5083372;28;20043;-81
2023/12/14 11:45:51;;;;;;;19.30;11.55;;;;;;;7.74;89.83;100405.53;5079862;28;20047;-81
2023/12/14 11:48:48;;;;;;;37.83;16.70;;;;;;;7.81;90.81;100410.53;5083064;28;20059;-81
2023/12/14 11:51:40;;;;;;;42.50;19.77;;;;;;;7.82;91.36;100404.03;5080042;28;20048;-81
2023/12/14 11:54:32;;;;;;;42.50;14.93;;;;;;;7.82;91.70;100406.75;5058907;28;20055;-82
2023/12/14 11:57:24;;;;;;;35.67;12.35;;;;;;;7.87;92.04;100403.91;5072394;28;20047;-81
2023/12/14 12:00:20;;;;;;;30.88;12.93;;;;;;;7.95;92.68;100404.00;5079657;28;20043;-81
2023/12/14 12:03:20;;;;;;;;;;;;;;;8.06;92.18;100399.16;5084425;28;20047;-82
2023/12/14 12:06:27;;;;;;;19.38;11.82;;;;;;;8.01;92.03;100391.13;5073050;28;20373;-82
2023/12/14 12:09:36;;;;;;;22.88;11.20;;;;;;;8.01;92.32;100391.94;5074397;28;20047;-81
2023/12/14 12:12:26;;;;;;;17.40;10.32;;;;;;;8.02;91.45;100390.03;5075315;28;20044;-81
2023/12/14 12:15:18;;;;;;;16.55;10.05;;;;;;;8.14;92.27;100393.00;5078835;28;20048;-81
2023/12/14 12:18:13;;;;;;;16.77;9.35;;;;;;;8.27;92.60;100399.47;5072453;28;21241;-81
2023/12/14 12:21:07;;;;;;;25.05;13.45;;;;;;;8.40;92.44;100401.34;5075812;28;20052;-80
2023/12/14 12:24:02;;;;;;;18.93;11.13;;;;;;;8.54;91.63;100405.59;5073217;28;20052;-81
2023/12/14 12:26:55;;;;;;;24.67;10.77;;;;;;;8.66;90.59;100399.59;5079540;28;20059;-81
2023/12/14 12:29:49;;;;;;;23.50;11.70;;;;;;;8.79;90.89;100409.56;5083359;28;20047;-81
2023/12/14 12:32:41;;;;;;;21.00;12.17;;;;;;;8.83;90.31;100417.88;5073225;28;20043;-79
2023/12/14 12:35:42;;;;;;;24.55;13.55;;;;;;;8.99;90.19;100424.50;5070563;28;20048;-80
2023/12/14 12:38:36;;;;;;;24.20;12.82;;;;;;;9.04;90.15;100427.06;5080842;28;20063;-81
2023/12/14 12:41:28;;;;;;;27.30;16.25;;;;;;;9.07;89.80;100423.75;5073664;28;20044;-80
2023/12/14 12:44:23;;;;;;;29.98;15.32;;;;;;;9.18;90.40;100416.16;5076119;28;20406;-81
2023/12/14 12:47:17;;;;;;;22.63;12.70;;;;;;;9.29;90.44;100412.84;5078946;28;20055;-81
2023/12/14 12:50:12;;;;;;;18.93;11.27;;;;;;;9.35;90.11;100403.44;5076497;28;20043;-81
2023/12/14 12:53:04;;;;;;;26.60;15.80;;;;;;;9.62;89.50;100409.72;5080406;28;20051;-81
2023/12/14 12:55:59;;;;;;;26.75;15.82;;;;;;;10.04;88.68;100406.28;5078345;28;20282;-82
2023/12/14 12:58:54;;;;;;;28.80;15.83;;;;;;;10.40;87.14;100402.47;5081539;28;20036;-82
2023/12/14 13:01:48;;;;;;;22.85;11.80;;;;;;;10.64;85.73;100400.03;5075198;28;20036;-81
2023/12/14 13:04:42;;;;;;;31.25;15.07;;;;;;;10.88;84.26;100394.84;5076534;28;20509;-80
2023/12/14 13:07:37;;;;;;;30.60;15.37;;;;;;;11.11;83.03;100401.66;5081423;28;20044;-81
2023/12/14 13:10:37;;;;;;;33.67;15.77;;;;;;;11.38;81.43;100397.69;5075016;28;20497;-81
2023/12/14 13:13:31;;;;;;;28.80;16.27;;;;;;;11.39;81.19;100398.47;5079402;28;20036;-81
2023/12/14 13:16:26;;;;;;;31.40;17.00;;;;;;;11.25;82.34;100396.00;5076284;28;20041;-82
2023/12/14 13:19:20;;;;;;;28.05;16.35;;;;;;;11.31;82.51;100396.59;5067050;28;20401;-81
2023/12/14 13:22:15;;;;;;;28.73;16.40;;;;;;;11.43;82.20;100404.84;5079321;28;20033;-82
2023/12/14 13:25:03;;;;;;;29.65;16.83;;;;;;;11.55;81.72;100402.25;5065591;28;20514;-81
2023/12/14 13:27:57;;;;;;;36.30;17.75;;;;;;;11.69;81.31;100404.72;5072871;28;20413;-79
2023/12/14 13:30:49;;;;;;;30.80;15.77;;;;;;;11.78;80.62;100409.03;5075299;28;20044;-82
2023/12/14 13:33:44;;;;;;;31.77;16.52;;;;;;;11.91;80.64;100410.69;5077808;28;20494;-81
2023/12/14 13:36:38;;;;;;;30.73;17.40;;;;;;;12.05;80.28;100425.97;5081230;28;20040;-82